Time;durP1;ratioP1;P1;durP2;ratioP2;P2;SDS_P1;SDS_P2;PMS_P1;PMS_P2;Temp;Humidity;BMP_temperature;BMP_pressure;BME280_temperature;BME280_humidity;BME280_pressure;Samples;Min_cycle;Max_cycle;Signal;HPM_P1;HPM_P2
2024/01/11 00:02:21;;;;;;;50.13;18.55;;;;;;;-3.80;87.30;100988.41;12226953;19;20550;-81
2024/01/11 00:06:23;;;;;;;35.67;13.15;;;;;;;-3.81;88.05;100985.81;12206944;19;20027;-83
2024/01/11 00:10:25;;;;;;;44.67;16.63;;;;;;;-3.82;87.99;100992.19;12227238;19;20011;-83
2024/01/11 00:14:27;;;;;;;36.92;15.77;;;;;;;-3.84;88.24;100981.53;12232971;19;20038;-82
2024/01/11 00:18:29;;;;;;;48.33;17.25;;;;;;;-3.82;88.04;100987.66;12208827;19;20370;-82
2024/01/11 00:22:32;;;;;;;37.38;17.05;;;;;;;-3.88;87.97;100982.78;12224327;19;20025;-83
2024/01/11 00:26:33;;;;;;;43.30;16.77;;;;;;;-3.93;88.17;100993.97;12224934;19;20021;-82
2024/01/11 00:30:36;;;;;;;50.95;20.65;;;;;;;-3.94;88.49;100994.94;12204124;19;20050;-83
2024/01/11 00:34:38;;;;;;;32.65;11.93;;;;;;;-3.97;88.67;101000.56;12221498;19;20762;-83
2024/01/11 00:38:40;;;;;;;50.50;17.73;;;;;;;-3.97;89.15;100997.03;12222649;19;20912;-84
2024/01/11 00:42:42;;;;;;;33.03;15.75;;;;;;;-4.02;89.34;101002.78;12192188;19;20023;-86
2024/01/11 00:46:44;;;;;;;42.30;17.13;;;;;;;-4.09;89.79;100998.03;12212024;19;20014;-83
2024/01/11 00:50:46;;;;;;;39.92;16.65;;;;;;;-4.12;90.05;101012.59;12188439;19;20263;-85
2024/01/11 00:54:47;;;;;;;40.10;16.40;;;;;;;-4.16;90.16;101006.63;12212323;19;20006;-83
2024/01/11 00:58:49;;;;;;;48.73;17.57;;;;;;;-4.18;90.66;101011.25;12210439;19;20027;-84
2024/01/11 01:02:51;;;;;;;41.50;15.20;;;;;;;-4.20;90.43;101015.91;12188719;19;20477;-84
2024/01/11 01:06:53;;;;;;;40.60;16.70;;;;;;;-4.21;90.61;101006.13;12211030;19;20015;-84
2024/01/11 01:10:55;;;;;;;35.28;15.55;;;;;;;-4.22;91.02;101007.13;12212925;19;20025;-84
2024/01/11 01:14:56;;;;;;;39.80;16.90;;;;;;;-4.24;90.75;101017.16;12188876;19;20017;-84
2024/01/11 01:18:58;;;;;;;44.67;16.17;;;;;;;-4.25;90.36;101014.59;12210391;19;20518;-85
2024/01/11 01:23:01;;;;;;;29.52;10.52;;;;;;;-4.29;90.44;101021.19;12209370;19;20323;-85
2024/01/11 01:27:03;;;;;;;;;;;;;;;-4.33;91.21;101020.59;12194576;19;20022;-85
2024/01/11 01:31:05;;;;;;;33.63;15.30;;;;;;;-4.38;91.74;101014.72;12225005;19;19911;-82
2024/01/11 01:40:13;;;;;;;38.63;15.75;;;;;;;-4.47;92.28;101015.47;12112409;19;2004521;-84
2024/01/11 01:44:15;;;;;;;47.03;17.42;;;;;;;-4.47;92.28;101020.84;12213641;19;20024;-84
2024/01/11 01:48:17;;;;;;;41.03;17.50;;;;;;;-4.43;92.26;101027.69;12191777;19;20033;-83
2024/01/11 01:52:20;;;;;;;40.65;15.57;;;;;;;-4.45;92.49;101016.19;12210283;19;20251;-84
2024/01/11 01:56:22;;;;;;;39.53;17.20;;;;;;;-4.49;92.33;101017.41;12210337;19;20128;-84
2024/01/11 02:00:24;;;;;;;37.33;15.82;;;;;;;-4.49;92.81;101022.78;12188405;19;20017;-85
2024/01/11 02:04:26;;;;;;;;;;;;;;;-4.50;93.38;101027.31;12205271;19;20006;-84
2024/01/11 02:08:30;;;;;;;39.40;15.93;;;;;;;-4.51;92.88;101028.31;12208055;19;19926;-84
2024/01/11 02:12:33;;;;;;;35.70;15.68;;;;;;;-4.55;93.07;101020.59;12186105;19;20109;-85
2024/01/11 02:16:36;;;;;;;33.17;14.68;;;;;;;-4.62;94.06;101021.09;12205414;19;20725;-84
2024/01/11 02:20:37;;;;;;;32.47;14.95;;;;;;;-4.64;93.84;101019.50;12206852;19;20003;-83
2024/01/11 02:24:40;;;;;;;32.38;15.02;;;;;;;-4.63;94.14;101016.69;12173362;19;20010;-83
2024/01/11 02:28:45;;;;;;;37.80;17.05;;;;;;;-4.65;93.92;101029.41;12206027;19;20018;-84
2024/01/11 02:32:48;;;;;;;41.80;15.75;;;;;;;-4.66;94.06;101027.69;12185294;19;20018;-85
2024/01/11 02:36:51;;;;;;;31.35;13.55;;;;;;;-4.69;94.32;101027.09;12204566;19;20609;-85
2024/01/11 02:40:54;;;;;;;41.30;16.40;;;;;;;-4.74;94.72;101040.88;12202492;19;20006;-85
2024/01/11 02:44:56;;;;;;;36.00;16.23;;;;;;;-4.78;95.05;101035.88;12184120;19;20007;-85
2024/01/11 02:48:58;;;;;;;28.93;14.13;;;;;;;-4.87;95.52;101035.63;12204680;19;20034;-86
2024/01/11 02:52:59;;;;;;;33.85;14.30;;;;;;;-4.83;95.89;101033.53;12204538;19;20267;-85
2024/01/11 02:57:01;;;;;;;27.42;13.10;;;;;;;-4.85;96.25;101039.06;12218907;19;20004;-86
2024/01/11 03:01:03;;;;;;;39.22;15.13;;;;;;;-4.84;96.29;101026.47;12222107;19;20399;-85
2024/01/11 03:05:05;;;;;;;30.67;13.00;;;;;;;-4.81;96.17;101034.28;12212396;19;20015;-86
2024/01/11 03:09:07;;;;;;;41.58;14.57;;;;;;;-4.86;96.00;101025.72;12195674;19;20605;-86
2024/01/11 03:13:09;;;;;;;29.70;13.95;;;;;;;-4.84;96.51;101019.25;12212457;19;20018;-86
2024/01/11 03:17:11;;;;;;;28.20;13.30;;;;;;;-4.84;96.79;101021.09;12233126;19;20007;-86
2024/01/11 03:21:12;;;;;;;35.10;15.15;;;;;;;-4.83;96.89;101014.72;12212630;19;20117;-86
2024/01/11 03:25:14;;;;;;;30.52;15.13;;;;;;;-4.86;97.16;101012.28;12230652;19;20037;-85
2024/01/11 03:29:16;;;;;;;35.55;13.88;;;;;;;-4.89;97.22;100999.94;12236300;19;20017;-86
2024/01/11 03:33:18;;;;;;;35.22;15.80;;;;;;;-4.89;97.33;101015.22;12213457;19;20021;-85
2024/01/11 03:37:20;;;;;;;28.50;13.35;;;;;;;-4.94;97.99;101006.66;12234537;19;20022;-84
2024/01/11 03:41:22;;;;;;;22.57;11.53;;;;;;;-4.94;99.04;101007.50;12230998;19;20043;-86
2024/01/11 03:45:25;;;;;;;31.13;14.63;;;;;;;-4.94;98.41;101003.97;12211516;19;20240;-85
2024/01/11 03:49:26;;;;;;;32.28;12.93;;;;;;;-4.98;98.49;101006.03;12223757;19;20014;-85
2024/01/11 03:53:29;;;;;;;28.70;13.77;;;;;;;-5.00;97.71;101009.81;12229216;19;20017;-85
2024/01/11 03:57:31;;;;;;;35.42;14.95;;;;;;;-5.06;98.36;101005.78;12212078;19;20470;-86
2024/01/11 04:01:33;;;;;;;31.27;13.68;;;;;;;-5.08;98.24;101015.81;12232009;19;20050;-85
2024/01/11 04:05:35;;;;;;;;;;;;;;;-5.13;98.81;101023.38;12233828;19;20018;-85
2024/01/11 04:09:38;;;;;;;36.42;14.35;;;;;;;-5.17;99.20;101024.59;12209481;19;20007;-85
2024/01/11 04:13:40;;;;;;;39.13;16.88;;;;;;;-5.23;99.13;101023.22;12262383;19;20036;-84
2024/01/11 04:17:42;;;;;;;49.22;17.65;;;;;;;-5.27;100.00;101032.47;12251669;19;20006;-84
2024/01/11 04:21:44;;;;;;;43.03;16.38;;;;;;;-5.26;100.00;101034.22;12262989;19;20008;-84
2024/01/11 04:25:46;;;;;;;47.70;17.50;;;;;;;-5.24;100.00;101029.56;12262068;19;20015;-84
2024/01/11 04:29:47;;;;;;;45.75;17.17;;;;;;;-5.21;100.00;101031.16;12205579;19;20279;-85
2024/01/11 04:33:49;;;;;;;44.28;15.23;;;;;;;-5.22;100.00;101035.69;12220108;19;20012;-85
2024/01/11 04:37:51;;;;;;;44.42;19.63;;;;;;;-5.20;100.00;101030.19;12220274;19;20014;-83
2024/01/11 04:41:53;;;;;;;40.08;17.58;;;;;;;-5.22;100.00;101030.31;12195118;19;20043;-85
2024/01/11 04:45:54;;;;;;;45.53;16.23;;;;;;;-5.18;100.00;101036.28;12218581;19;20011;-85
2024/01/11 04:49:56;;;;;;;35.90;13.67;;;;;;;-5.18;100.00;101031.78;12215927;19;20251;-85
2024/01/11 04:53:58;;;;;;;42.03;18.08;;;;;;;-5.20;100.00;101031.06;12193095;19;21554;-85
2024/01/11 04:58:00;;;;;;;50.15;17.60;;;;;;;-5.22;100.00;101030.31;12216144;19;20915;-85
2024/01/11 05:02:02;;;;;;;52.88;16.65;;;;;;;-5.24;99.96;101029.56;12216468;19;20014;-84
2024/01/11 05:06:04;;;;;;;43.25;18.38;;;;;;;-5.28;100.00;101037.00;12231129;19;20010;-84
2024/01/11 05:10:06;;;;;;;39.33;17.33;;;;;;;-5.29;100.00;101039.81;12258233;19;20345;-84
2024/01/11 05:14:08;;;;;;;50.15;18.40;;;;;;;-5.30;100.00;101035.41;12257511;19;20007;-84
2024/01/11 05:18:10;;;;;;;34.03;13.32;;;;;;;-5.33;100.00;101035.63;12236386;19;20036;-83
2024/01/11 05:22:12;;;;;;;39.78;14.95;;;;;;;-5.35;100.00;101034.91;12259243;19;20007;-84
2024/01/11 05:26:15;;;;;;;51.17;18.63;;;;;;;-5.38;100.00;101051.28;12260662;19;20014;-85
2024/01/11 05:30:17;;;;;;;48.75;19.67;;;;;;;-5.40;100.00;101037.09;12230850;19;20010;-85
2024/01/11 05:34:19;;;;;;;45.60;18.38;;;;;;;-5.44;100.00;101057.09;12237702;19;20077;-86
2024/01/11 05:38:21;;;;;;;42.30;17.67;;;;;;;-5.50;100.00;101056.59;12252073;19;20052;-83
2024/01/11 05:42:23;;;;;;;41.97;16.88;;;;;;;-5.54;100.00;101049.72;12227275;19;20045;-84
2024/01/11 05:46:25;;;;;;;46.33;18.15;;;;;;;-5.57;100.00;101049.97;12223418;19;20015;-84
2024/01/11 05:50:27;;;;;;;49.45;17.77;;;;;;;-5.58;100.00;101053.63;12207562;19;20457;-84
2024/01/11 05:54:29;;;;;;;54.10;19.80;;;;;;;-5.62;100.00;101049.47;12185521;19;20017;-85
2024/01/11 05:58:30;;;;;;;45.67;17.73;;;;;;;-5.61;100.00;101066.44;12214479;19;20010;-84
2024/01/11 06:02:32;;;;;;;53.90;17.73;;;;;;;-5.63;100.00;101069.22;12210081;19;20259;-85
2024/01/11 06:06:34;;;;;;;50.83;18.20;;;;;;;-5.63;100.00;101068.38;12189065;19;20251;-84
2024/01/11 06:10:36;;;;;;;45.13;16.90;;;;;;;-5.68;100.00;101070.53;12210796;19;20003;-85
2024/01/11 06:14:38;;;;;;;48.50;18.60;;;;;;;-5.65;100.00;101078.34;12209687;19;20061;-85
2024/01/11 06:18:40;;;;;;;40.78;16.33;;;;;;;-5.69;100.00;101084.94;12189003;19;20735;-85
2024/01/11 06:22:41;;;;;;;48.10;19.42;;;;;;;-5.70;100.00;101102.88;12205979;19;20014;-85
2024/01/11 06:26:46;;;;;;;53.00;18.58;;;;;;;-5.71;100.00;101109.22;12180704;19;20014;-84
2024/01/11 06:30:48;;;;;;;34.28;12.27;;;;;;;-5.68;100.00;101118.88;12208009;19;20018;-85
2024/01/11 06:34:51;;;;;;;54.92;18.63;;;;;;;-5.66;100.00;101122.31;12207636;19;20010;-85
2024/01/11 06:38:53;;;;;;;42.38;18.85;;;;;;;-5.69;100.00;101122.53;12188222;19;20042;-84
2024/01/11 06:42:55;;;;;;;38.10;17.50;;;;;;;-5.73;100.00;101133.50;12203837;19;20768;-85
2024/01/11 06:46:57;;;;;;;56.67;21.50;;;;;;;-5.79;100.00;101133.09;12208455;19;20235;-85
2024/01/11 06:50:58;;;;;;;56.95;23.73;;;;;;;-5.76;100.00;101138.25;12183555;19;20034;-83
2024/01/11 06:55:04;;;;;;;58.55;19.08;;;;;;;-5.81;100.00;101135.88;12249688;19;20018;-84
2024/01/11 06:59:07;;;;;;;46.22;18.13;;;;;;;-5.80;100.00;101142.97;12222803;19;20002;-84
2024/01/11 07:03:10;;;;;;;40.28;14.10;;;;;;;-5.81;100.00;101137.72;12187251;19;20127;-85
2024/01/11 07:07:12;;;;;;;61.13;20.02;;;;;;;-5.84;100.00;101143.31;12211860;19;20528;-85
2024/01/11 07:11:14;;;;;;;48.50;19.10;;;;;;;-5.85;100.00;101137.09;12212278;19;20010;-85
2024/01/11 07:15:17;;;;;;;56.97;21.35;;;;;;;-5.87;100.00;101148.91;12186566;19;20023;-85
2024/01/11 07:19:18;;;;;;;41.33;19.05;;;;;;;-5.88;100.00;101149.88;12205157;19;20028;-86
2024/01/11 07:23:20;;;;;;;47.03;18.50;;;;;;;-5.92;100.00;101154.59;12203239;19;20794;-85
2024/01/11 07:27:22;;;;;;;54.90;21.52;;;;;;;-5.87;100.00;101148.91;12182816;19;20617;-85
2024/01/11 07:31:24;;;;;;;123.95;44.50;;;;;;;-5.91;100.00;101150.94;12205371;19;20011;-83
2024/01/11 07:35:26;;;;;;;;;;;;;;;-5.90;100.00;101155.34;12209421;19;20035;-85
2024/01/11 07:39:30;;;;;;;61.55;23.48;;;;;;;-5.91;100.00;101150.94;12196659;19;20344;-85
2024/01/11 07:43:35;;;;;;;48.53;20.30;;;;;;;-5.86;100.00;101148.81;12205111;19;20023;-85
2024/01/11 07:47:53;;;;;;;48.92;19.02;;;;;;;-5.75;100.00;101156.06;12181570;19;20017;-84
2024/01/11 07:51:55;;;;;;;52.90;20.45;;;;;;;-5.69;100.00;101160.97;12202281;19;20010;-84
2024/01/11 07:55:58;;;;;;;46.00;20.52;;;;;;;-5.61;100.00;101169.34;12204092;19;20018;-85
2024/01/11 08:00:00;;;;;;;49.00;19.73;;;;;;;-5.56;99.61;101177.06;12181403;19;20010;-85
2024/01/11 08:04:02;;;;;;;;;;;;;;;-5.59;99.43;101179.94;12215024;19;20103;-85
2024/01/11 08:08:05;;;;;;;49.45;18.45;;;;;;;-5.58;99.75;101174.47;12218089;19;20331;-85
2024/01/11 08:12:06;;;;;;;40.15;17.20;;;;;;;-5.57;99.93;101170.81;12200805;19;20007;-85
2024/01/11 08:16:09;;;;;;;54.80;20.88;;;;;;;-5.51;99.11;101178.41;12223680;19;20014;-85
2024/01/11 08:20:11;;;;;;;53.13;20.42;;;;;;;-5.46;98.74;101183.47;12216410;19;20006;-84
2024/01/11 08:24:13;;;;;;;47.88;19.05;;;;;;;-5.41;98.00;101183.09;12192912;19;20010;-86
2024/01/11 08:28:15;;;;;;;57.75;21.20;;;;;;;-5.36;98.48;101172.88;12216222;19;20023;-85
2024/01/11 08:32:16;;;;;;;53.85;19.83;;;;;;;-5.27;98.13;101165.00;12215046;19;20020;-85
2024/01/11 08:36:34;;;;;;;47.35;19.70;;;;;;;-5.19;97.32;101148.31;12208851;19;20090;-86
2024/01/11 08:40:35;;;;;;;51.40;19.20;;;;;;;-5.15;97.12;101155.16;12224093;19;20021;-85
2024/01/11 08:44:42;;;;;;;59.15;21.75;;;;;;;-5.04;97.00;101160.59;12218785;19;20038;-84
2024/01/11 08:48:44;;;;;;;64.07;20.95;;;;;;;-5.00;96.14;101146.91;12196901;19;20450;-84
2024/01/11 08:52:46;;;;;;;41.67;16.75;;;;;;;-4.88;96.46;101159.41;12216261;19;20025;-85
2024/01/11 08:56:48;;;;;;;;;;;;;;;-4.76;95.69;101166.53;12195221;19;20010;-85
2024/01/11 09:00:50;;;;;;;48.50;17.60;;;;;;;-4.62;94.94;101174.41;12211832;19;19923;-85
2024/01/11 09:04:52;;;;;;;44.40;19.70;;;;;;;-4.50;94.27;101177.13;12215821;19;20011;-84
2024/01/11 09:08:53;;;;;;;56.70;18.77;;;;;;;-4.37;94.15;101176.06;12193120;19;20342;-84
2024/01/11 09:12:56;;;;;;;51.92;21.10;;;;;;;-4.24;93.46;101184.03;12212217;19;20027;-84
2024/01/11 09:16:57;;;;;;;53.10;23.50;;;;;;;-4.29;92.17;101183.50;12211751;19;20493;-84
2024/01/11 09:20:59;;;;;;;49.70;20.40;;;;;;;-4.33;91.97;101202.72;12190290;19;20275;-86
2024/01/11 09:25:01;;;;;;;53.67;22.65;;;;;;;-4.28;91.97;101209.47;12208892;19;20010;-86
2024/01/11 09:29:03;;;;;;;57.30;20.30;;;;;;;-4.28;90.90;101214.84;12212876;19;20018;-85
2024/01/11 09:33:06;;;;;;;49.13;22.10;;;;;;;-4.23;91.04;101207.25;12200598;19;20232;-85
2024/01/11 09:37:08;;;;;;;49.22;20.20;;;;;;;-4.14;90.76;101211.06;12240335;19;20388;-86
2024/01/11 09:41:13;;;;;;;51.73;19.70;;;;;;;-3.96;90.82;101208.75;12208513;19;20007;-84
2024/01/11 09:45:16;;;;;;;57.25;21.45;;;;;;;-3.75;90.65;101201.69;12186593;19;20231;-85
2024/01/11 09:49:22;;;;;;;55.38;21.15;;;;;;;-3.51;89.96;101196.13;12207237;19;20053;-85
2024/01/11 09:53:26;;;;;;;61.40;21.77;;;;;;;-3.33;88.91;101180.28;12209214;19;20394;-85
2024/01/11 09:57:35;;;;;;;50.10;20.63;;;;;;;-3.23;87.73;101200.09;12188431;19;20473;-85
2024/01/11 10:01:37;;;;;;;51.00;21.38;;;;;;;-3.10;87.74;101186.44;12210755;19;20021;-86
2024/01/11 10:05:40;;;;;;;52.45;19.10;;;;;;;-2.95;86.34;101194.25;12208956;19;20116;-85
2024/01/11 10:09:42;;;;;;;82.55;29.00;;;;;;;-2.87;85.44;101195.31;12187954;19;20014;-85
2024/01/11 10:13:44;;;;;;;59.43;21.80;;;;;;;-2.71;84.80;101196.72;12211134;19;20091;-85
2024/01/11 10:17:46;;;;;;;56.58;21.80;;;;;;;-2.67;84.16;101201.75;12191384;19;20027;-85
2024/01/11 10:21:49;;;;;;;57.40;24.52;;;;;;;-2.66;84.13;101219.63;12210307;19;20006;-86
2024/01/11 10:25:51;;;;;;;62.25;22.52;;;;;;;-2.64;84.00;101212.28;12208791;19;20014;-85
2024/01/11 10:29:53;;;;;;;53.20;22.17;;;;;;;-2.59;84.10;101211.88;12189871;19;20033;-84
2024/01/11 10:33:57;;;;;;;48.55;21.65;;;;;;;-2.58;83.39;101206.34;12211071;19;20326;-84
2024/01/11 10:38:05;;;;;;;49.17;21.77;;;;;;;-2.40;83.69;101192.28;12206009;19;20368;-83
2024/01/11 10:42:09;;;;;;;55.20;20.52;;;;;;;-2.26;83.13;101174.84;12186126;19;20018;-85
2024/01/11 10:46:12;;;;;;;52.55;20.83;;;;;;;-2.11;82.20;101185.19;12205832;19;20020;-84
2024/01/11 10:50:16;;;;;;;50.35;20.42;;;;;;;-2.01;81.71;101187.94;12204587;19;20034;-84
2024/01/11 10:54:22;;;;;;;57.50;23.40;;;;;;;-1.98;81.90;101193.06;12181806;19;20003;-83
2024/01/11 10:58:27;;;;;;;53.83;22.98;;;;;;;-1.72;82.19;101182.66;12205717;19;20007;-84
2024/01/11 11:02:29;;;;;;;65.00;25.02;;;;;;;-1.62;80.28;101174.59;12203478;19;20820;-83
2024/01/11 11:06:31;;;;;;;53.88;20.75;;;;;;;-1.48;79.83;101155.28;12184580;19;20074;-83
2024/01/11 11:10:36;;;;;;;54.75;19.95;;;;;;;-1.45;78.96;101156.84;12204404;19;20031;-84
2024/01/11 11:14:38;;;;;;;52.97;20.65;;;;;;;-1.31;79.52;101145.66;12206819;19;20026;-84
2024/01/11 11:18:40;;;;;;;;;;;;;;;-1.21;78.33;101157.31;12184631;19;20486;-83
2024/01/11 11:22:42;;;;;;;54.83;20.45;;;;;;;-1.08;77.65;101151.63;12205441;19;19914;-85
2024/01/11 11:26:44;;;;;;;49.22;21.50;;;;;;;-0.92;76.71;101137.56;12184476;19;20468;-84
2024/01/11 11:30:48;;;;;;;45.53;19.17;;;;;;;-0.80;76.06;101138.25;12206689;19;20054;-84
2024/01/11 11:34:52;;;;;;;47.75;20.15;;;;;;;-0.66;75.35;101132.38;12208388;19;20045;-85
2024/01/11 11:38:59;;;;;;;53.20;20.13;;;;;;;-0.56;75.35;101138.66;12204275;19;20435;-84
2024/01/11 11:43:04;;;;;;;58.28;19.88;;;;;;;-0.44;74.97;101139.34;12252476;19;20014;-82
2024/01/11 11:47:21;;;;;;;49.08;19.90;;;;;;;-0.38;73.54;101143.31;12243514;19;20006;-83
2024/01/11 11:51:24;;;;;;;51.67;20.85;;;;;;;-0.12;73.94;101149.81;12204847;19;20024;-84
2024/01/11 11:55:31;;;;;;;41.78;20.15;;;;;;;0.20;72.94;101134.97;12210349;19;20007;-84
2024/01/11 11:59:36;;;;;;;48.90;19.23;;;;;;;0.59;72.53;101129.31;12210865;19;20021;-84
2024/01/11 12:03:42;;;;;;;48.22;22.35;;;;;;;1.12;72.28;101123.06;12186740;19;20763;-85
2024/01/11 12:07:45;;;;;;;49.40;21.17;;;;;;;1.66;70.22;101112.09;12209673;19;20014;-82
2024/01/11 12:11:47;;;;;;;44.88;22.05;;;;;;;2.32;70.23;101121.44;12190433;19;20031;-84
2024/01/11 12:16:03;;;;;;;48.33;22.85;;;;;;;2.98;71.18;101112.44;12213212;19;20007;-84
2024/01/11 12:20:06;;;;;;;49.10;22.97;;;;;;;3.32;65.98;101105.97;12215443;19;20576;-84
2024/01/11 12:24:09;;;;;;;50.40;23.60;;;;;;;3.53;63.10;101106.28;12195786;19;20018;-84
2024/01/11 12:28:11;;;;;;;51.87;24.43;;;;;;;3.71;64.35;101097.06;12217689;19;20010;-87
2024/01/11 12:32:16;;;;;;;54.90;24.70;;;;;;;3.96;63.78;101096.00;12220474;19;20006;-87
2024/01/11 12:36:18;;;;;;;49.75;24.88;;;;;;;4.25;61.31;101097.22;12201687;19;20270;-85
2024/01/11 12:40:22;;;;;;;56.47;29.42;;;;;;;4.75;60.85;101088.59;12249020;19;20017;-86
2024/01/11 12:44:24;;;;;;;50.03;24.58;;;;;;;5.02;56.80;101095.41;12268919;19;20346;-86
2024/01/11 12:48:27;;;;;;;54.50;27.23;;;;;;;5.22;54.56;101098.50;12229521;19;20011;-85
2024/01/11 12:52:30;;;;;;;47.25;23.25;;;;;;;4.51;54.32;101100.50;12213040;19;20875;-87
2024/01/11 12:56:32;;;;;;;50.78;24.85;;;;;;;3.80;55.02;101106.94;12220794;19;20031;-87
2024/01/11 13:00:36;;;;;;;51.13;22.60;;;;;;;3.38;56.56;101102.56;12195071;19;20017;-87
2024/01/11 13:04:39;;;;;;;47.63;23.38;;;;;;;3.08;56.12;101087.75;12216733;19;20078;-87
2024/01/11 13:08:43;;;;;;;42.83;20.52;;;;;;;2.91;56.77;101090.47;12197840;19;20466;-86
2024/01/11 13:12:45;;;;;;;46.97;20.52;;;;;;;2.81;57.14;101084.34;12211773;19;20050;-87
2024/01/11 13:16:54;;;;;;;49.53;22.48;;;;;;;2.64;57.55;101083.44;12212686;19;20873;-88
2024/01/11 13:20:56;;;;;;;45.28;20.95;;;;;;;2.63;58.08;101092.63;12192458;19;20014;-86
2024/01/11 13:24:58;;;;;;;48.50;20.13;;;;;;;2.53;58.20;101094.66;12212532;19;20006;-86
2024/01/11 13:29:00;;;;;;;45.75;21.48;;;;;;;2.31;57.25;101092.53;12214845;19;20024;-86
2024/01/11 13:33:03;;;;;;;49.07;21.83;;;;;;;2.18;57.92;101093.88;12190263;19;20932;-86
2024/01/11 13:37:05;;;;;;;48.08;20.50;;;;;;;2.11;58.35;101087.34;12209942;19;20015;-86
2024/01/11 13:41:10;;;;;;;45.00;19.00;;;;;;;2.09;58.85;101089.41;12209173;19;20018;-86
2024/01/11 13:45:12;;;;;;;46.90;19.70;;;;;;;1.99;58.45;101091.38;12188855;19;20030;-85
2024/01/11 13:49:14;;;;;;;42.43;18.00;;;;;;;1.87;58.56;101100.84;12209533;19;20030;-86
2024/01/11 13:53:16;;;;;;;40.93;18.47;;;;;;;1.78;58.66;101091.78;12209140;19;20272;-86
2024/01/11 13:57:18;;;;;;;33.90;16.15;;;;;;;1.79;58.59;101086.19;12188404;19;20006;-85
2024/01/11 14:01:20;;;;;;;30.57;17.53;;;;;;;1.76;58.79;101089.25;12209516;19;20433;-86
2024/01/11 14:05:21;;;;;;;37.28;15.90;;;;;;;1.68;58.33;101091.06;12212940;19;20011;-84
2024/01/11 14:09:23;;;;;;;47.67;17.93;;;;;;;1.60;58.57;101097.28;12190902;19;19999;-85
2024/01/11 14:13:25;;;;;;;43.23;18.00;;;;;;;1.58;58.27;101107.47;12209968;19;20011;-86
2024/01/11 14:17:27;;;;;;;37.85;16.50;;;;;;;1.52;58.29;101117.13;12211336;19;20068;-86
2024/01/11 14:21:30;;;;;;;44.58;17.88;;;;;;;1.60;58.96;101116.31;12199797;19;20010;-86
2024/01/11 14:25:34;;;;;;;39.95;17.98;;;;;;;1.64;58.99;101117.72;12209329;19;20023;-85
2024/01/11 14:29:40;;;;;;;38.92;18.42;;;;;;;1.67;58.98;101111.09;12206047;19;20010;-85
2024/01/11 14:33:42;;;;;;;41.47;17.25;;;;;;;1.67;59.03;101106.53;12185941;19;20006;-85
2024/01/11 14:37:44;;;;;;;42.93;16.13;;;;;;;1.68;59.38;101102.78;12202980;19;20180;-86
2024/01/11 14:41:46;;;;;;;47.95;17.60;;;;;;;1.68;59.32;101100.06;12185335;19;20015;-86
2024/01/11 14:45:48;;;;;;;36.83;15.90;;;;;;;1.65;59.71;101092.22;12211315;19;20082;-87
2024/01/11 14:49:52;;;;;;;46.08;18.20;;;;;;;1.57;58.75;101093.00;12207825;19;20039;-86
2024/01/11 14:53:54;;;;;;;42.72;19.05;;;;;;;1.56;59.21;101083.16;12184095;19;20030;-85
2024/01/11 14:57:56;;;;;;;48.95;17.38;;;;;;;1.55;59.50;101077.91;12208505;19;20023;-86
2024/01/11 15:02:00;;;;;;;42.22;18.17;;;;;;;1.52;59.81;101079.09;12204189;19;20018;-85
2024/01/11 15:06:04;;;;;;;38.15;16.23;;;;;;;1.43;60.20;101084.59;12184917;19;20109;-86
2024/01/11 15:10:07;;;;;;;40.42;16.13;;;;;;;1.32;60.22;101091.16;12203981;19;20362;-85
2024/01/11 15:14:09;;;;;;;38.70;17.20;;;;;;;1.15;60.31;101095.59;12209619;19;20022;-86
2024/01/11 15:18:12;;;;;;;;;;;;;;;1.04;61.02;101098.56;12188435;19;20022;-87
2024/01/11 15:22:15;;;;;;;34.67;14.15;;;;;;;0.93;61.29;101107.81;12205042;19;19914;-86
2024/01/11 15:26:17;;;;;;;39.40;15.40;;;;;;;0.81;61.75;101099.03;12207039;19;20066;-86
2024/01/11 15:30:20;;;;;;;32.40;13.57;;;;;;;0.71;62.14;101100.13;12182477;19;20296;-86
2024/01/11 15:34:23;;;;;;;31.33;14.98;;;;;;;0.58;62.99;101112.19;12204348;19;20007;-86
2024/01/11 15:38:25;;;;;;;38.08;15.68;;;;;;;0.41;63.70;101094.88;12203722;19;20014;-85
2024/01/11 15:42:27;;;;;;;40.22;14.30;;;;;;;0.26;64.32;101093.69;12181002;19;20015;-86
2024/01/11 15:46:29;;;;;;;39.23;15.33;;;;;;;0.11;64.64;101096.06;12204232;19;20516;-86
2024/01/11 15:50:31;;;;;;;37.35;15.88;;;;;;;-0.04;65.41;101097.56;12201022;19;20031;-86
2024/01/11 15:54:33;;;;;;;36.53;14.98;;;;;;;-0.18;66.13;101095.34;12180891;19;20596;-85
2024/01/11 15:58:35;;;;;;;39.87;16.87;;;;;;;-0.33;66.13;101103.09;12203784;19;20018;-86
2024/01/11 16:02:38;;;;;;;31.77;15.60;;;;;;;-0.46;67.08;101106.97;12201605;19;20019;-86
2024/01/11 16:06:40;;;;;;;37.90;16.42;;;;;;;-0.56;67.47;101106.16;12182232;19;20010;-86
2024/01/11 16:10:42;;;;;;;37.08;16.88;;;;;;;-0.66;68.24;101118.00;12200907;19;20367;-85
2024/01/11 16:14:45;;;;;;;40.97;15.80;;;;;;;-0.76;68.63;101134.25;12183074;19;20010;-85
2024/01/11 16:18:49;;;;;;;34.33;15.32;;;;;;;-0.87;69.33;101147.94;12202813;19;20091;-86
2024/01/11 16:22:51;;;;;;;45.27;15.33;;;;;;;-0.97;69.66;101153.34;12204784;19;20031;-86
2024/01/11 16:26:53;;;;;;;47.40;17.65;;;;;;;-1.06;70.07;101149.63;12194128;19;20035;-85
2024/01/11 16:30:56;;;;;;;44.47;17.43;;;;;;;-1.17;70.50;101152.47;12216732;19;20011;-87
2024/01/11 16:34:59;;;;;;;34.58;15.38;;;;;;;-1.25;70.67;101153.19;12213936;19;20042;-86
2024/01/11 16:39:03;;;;;;;34.38;14.90;;;;;;;-1.28;70.95;101148.06;12192223;19;20099;-85
2024/01/11 16:43:04;;;;;;;;;;;;;;;-1.34;71.60;101142.34;12215739;19;20612;-84
2024/01/11 16:47:06;;;;;;;35.67;14.02;;;;;;;-1.38;71.73;101144.47;12215842;19;20698;-85
2024/01/11 16:51:09;;;;;;;39.42;14.90;;;;;;;-1.47;71.59;101146.16;12191136;19;20890;-85
2024/01/11 16:55:11;;;;;;;37.65;15.80;;;;;;;-1.57;72.07;101139.91;12210639;19;20014;-85
2024/01/11 16:59:15;;;;;;;38.50;16.10;;;;;;;-1.64;72.92;101153.13;12214800;19;20011;-86
2024/01/11 17:03:17;;;;;;;34.97;15.15;;;;;;;-1.65;73.65;101158.66;12188794;19;20014;-84
2024/01/11 17:07:18;;;;;;;41.40;15.27;;;;;;;-1.69;74.12;101151.81;12210008;19;20042;-85
2024/01/11 17:11:20;;;;;;;38.63;16.77;;;;;;;-1.69;74.42;101149.13;12211797;19;20014;-85
2024/01/11 17:15:23;;;;;;;;;;;;;;;-1.73;74.47;101144.97;12190237;19;20019;-85
2024/01/11 17:19:25;;;;;;;41.60;16.02;;;;;;;-1.75;74.54;101144.25;12211458;19;19954;-85
2024/01/11 17:23:26;;;;;;;33.47;14.87;;;;;;;-1.79;74.73;101146.34;12205486;19;20031;-84
2024/01/11 17:27:29;;;;;;;43.88;17.73;;;;;;;-1.81;75.40;101151.06;12189591;19;20015;-85
2024/01/11 17:31:30;;;;;;;38.07;16.03;;;;;;;-1.82;75.37;101149.34;12209206;19;20014;-84
2024/01/11 17:35:32;;;;;;;34.43;15.60;;;;;;;-1.83;75.78;101156.59;12210268;19;20002;-85
2024/01/11 17:39:35;;;;;;;35.80;16.05;;;;;;;-1.84;75.97;101156.75;12203263;19;20351;-85
2024/01/11 17:43:37;;;;;;;38.77;15.77;;;;;;;-1.87;76.28;101159.72;12213715;19;20027;-85
2024/01/11 17:47:39;;;;;;;34.30;15.00;;;;;;;-1.89;76.66;101154.44;12213552;19;20280;-88
2024/01/11 17:51:40;;;;;;;37.83;16.20;;;;;;;-1.90;76.46;101144.63;12190130;19;20019;-85
2024/01/11 17:55:43;;;;;;;45.08;16.27;;;;;;;-1.88;76.38;101150.72;12213022;19;20006;-85
2024/01/11 17:59:47;;;;;;;39.42;16.48;;;;;;;-1.87;76.73;101162.41;12189885;19;20007;-87
2024/01/11 18:03:49;;;;;;;40.33;15.90;;;;;;;-1.90;77.31;101160.84;12219406;19;20046;-85
2024/01/11 18:07:55;;;;;;;40.83;15.90;;;;;;;-1.91;76.91;101150.16;12216560;19;20011;-86
2024/01/11 18:11:57;;;;;;;35.42;14.68;;;;;;;-1.96;77.48;101166.78;12217270;19;20018;-85
2024/01/11 18:15:59;;;;;;;27.87;14.60;;;;;;;-1.98;77.90;101171.47;12247201;19;20010;-84
2024/01/11 18:20:04;;;;;;;;;;;;;;;-2.02;78.11;101164.63;12240058;19;20022;-84